Time;durP1;ratioP1;P1;durP2;ratioP2;P2;SDS_P1;SDS_P2;PMS_P1;PMS_P2;Temp;Humidity;BMP_temperature;BMP_pressure;BME280_temperature;BME280_humidity;BME280_pressure;Samples;Min_cycle;Max_cycle;Signal;HPM_P1;HPM_P2
2021/08/03 00:00:25;;;;;;;6.85;3.22;;;;;;;15.95;65.42;100495.59;4897341;28;99700;-63
2021/08/03 00:02:52;;;;;;;4.50;3.17;;;;;;;15.96;65.48;100489.09;4901956;28;117993;-63
2021/08/03 00:05:21;;;;;;;3.30;2.83;;;;;;;15.91;65.28;100481.00;4902660;28;98041;-63
2021/08/03 00:07:47;;;;;;;3.85;3.30;;;;;;;15.88;65.28;100481.66;4902320;28;98789;-63
2021/08/03 00:10:17;;;;;;;4.00;3.30;;;;;;;15.79;65.78;100478.00;4900896;28;99218;-66
2021/08/03 00:12:52;;;;;;;3.53;3.08;;;;;;;15.70;65.42;100478.69;4902785;28;97934;-63
2021/08/03 00:15:20;;;;;;;3.72;3.33;;;;;;;15.66;65.91;100483.13;4900228;28;118171;-66
2021/08/03 00:17:47;;;;;;;4.30;3.80;;;;;;;15.64;66.19;100490.75;4903159;28;98059;-63
2021/08/03 00:20:13;;;;;;;3.58;3.05;;;;;;;15.66;66.48;100501.34;4900320;28;114300;-63
2021/08/03 00:22:39;;;;;;;8.50;3.63;;;;;;;15.70;66.19;100499.63;4900733;28;126694;-63
2021/08/03 00:25:05;;;;;;;3.72;3.42;;;;;;;15.73;66.03;100490.88;4900261;28;127567;-66
2021/08/03 00:27:32;;;;;;;4.70;3.83;;;;;;;15.75;66.15;100504.16;4900562;28;114480;-66
2021/08/03 00:29:58;;;;;;;3.95;3.58;;;;;;;15.75;66.00;100504.97;4883673;28;127977;-66
2021/08/03 00:32:26;;;;;;;4.25;3.85;;;;;;;15.74;66.04;100511.50;4901162;28;110295;-66
2021/08/03 00:34:52;;;;;;;4.32;3.90;;;;;;;15.76;66.46;100506.59;4900535;28;98329;-63
2021/08/03 00:37:18;;;;;;;4.57;3.33;;;;;;;15.74;66.05;100500.66;4899602;28;122262;-66
2021/08/03 00:39:45;;;;;;;3.80;3.50;;;;;;;15.72;66.12;100502.88;4900895;28;128111;-66
2021/08/03 00:42:11;;;;;;;4.88;3.63;;;;;;;15.73;66.62;100509.91;4899573;28;123266;-66
2021/08/03 00:44:50;;;;;;;4.05;3.20;;;;;;;15.73;66.16;100514.53;4915175;28;127131;-63
2021/08/03 00:47:20;;;;;;;4.35;3.40;;;;;;;15.75;66.51;100513.13;4902689;28;97696;-66
2021/08/03 00:49:47;;;;;;;5.05;3.45;;;;;;;15.70;66.25;100510.50;4886222;28;98117;-66
2021/08/03 00:52:14;;;;;;;4.80;3.45;;;;;;;15.67;66.22;100519.25;4903038;28;98883;-66
2021/08/03 00:54:41;;;;;;;4.93;3.15;;;;;;;15.63;66.31;100518.22;4901822;28;116892;-63
2021/08/03 00:57:08;;;;;;;6.63;3.95;;;;;;;15.62;66.82;100511.97;4901091;28;122429;-66
2021/08/03 00:59:34;;;;;;;8.38;3.60;;;;;;;15.62;66.77;100511.97;4901252;28;120582;-66
2021/08/03 01:02:03;;;;;;;5.38;3.45;;;;;;;15.64;66.75;100506.22;4898787;28;127197;-66
2021/08/03 01:04:29;;;;;;;6.20;3.80;;;;;;;15.64;66.84;100503.50;4901254;28;119002;-66
2021/08/03 01:07:04;;;;;;;11.20;4.20;;;;;;;15.60;66.57;100510.66;4901683;28;115865;-63
2021/08/03 01:09:56;;;;;;;7.97;3.95;;;;;;;15.57;66.29;100503.94;4900209;28;98502;-66
2021/08/03 01:12:56;;;;;;;5.72;3.25;;;;;;;15.56;66.60;100509.63;4900239;28;98761;-66
2021/08/03 01:15:49;;;;;;;8.85;4.20;;;;;;;15.55;66.76;100508.84;4901667;28;98193;-64
2021/08/03 01:18:35;;;;;;;9.05;3.97;;;;;;;15.51;66.58;100504.31;4900590;28;98104;-67
2021/08/03 01:21:28;;;;;;;6.68;3.42;;;;;;;15.47;66.61;100499.47;4895792;28;108457;-66
2021/08/03 01:24:07;;;;;;;;;;;;;;;15.38;66.38;100498.56;4900135;28;115984;-64
2021/08/03 01:27:18;;;;;;;9.15;3.67;;;;;;;15.39;66.46;100507.50;4898253;28;98280;-64
2021/08/03 01:29:45;;;;;;;9.30;3.92;;;;;;;15.39;67.28;100507.50;4901066;28;97952;-66
2021/08/03 01:32:13;;;;;;;10.45;4.05;;;;;;;15.39;67.52;100502.88;4883346;28;117869;-66
2021/08/03 01:34:41;;;;;;;7.13;3.50;;;;;;;15.40;67.17;100509.91;4893483;28;120719;-66
2021/08/03 01:37:07;;;;;;;8.38;3.80;;;;;;;15.45;67.31;100511.75;4884204;28;98095;-66
2021/08/03 01:39:39;;;;;;;4.05;3.60;;;;;;;15.45;66.73;100514.47;4900152;28;123584;-67
2021/08/03 01:42:06;;;;;;;5.97;3.90;;;;;;;15.50;67.12;100513.56;4900171;28;97869;-66
2021/08/03 01:44:33;;;;;;;4.15;3.70;;;;;;;15.50;67.21;100513.56;4867713;28;99210;-66
2021/08/03 01:46:59;;;;;;;3.95;3.40;;;;;;;15.50;67.65;100519.81;4883861;28;104650;-66
2021/08/03 01:49:25;;;;;;;3.97;3.50;;;;;;;15.50;67.29;100514.38;4866577;28;122889;-66
2021/08/03 01:51:51;;;;;;;3.90;3.03;;;;;;;15.51;67.64;100515.97;4883274;28;127498;-64
2021/08/03 01:54:17;;;;;;;3.95;3.30;;;;;;;15.54;67.45;100528.97;4867476;28;98766;-64
2021/08/03 01:56:45;;;;;;;3.55;3.08;;;;;;;15.55;67.55;100521.63;4897788;28;126244;-64
2021/08/03 01:59:11;;;;;;;4.00;3.60;;;;;;;15.53;67.40;100518.41;4867286;28;112473;-64
2021/08/03 02:01:37;;;;;;;8.80;3.92;;;;;;;15.48;67.26;100524.72;4882460;28;117716;-66
2021/08/03 02:04:04;;;;;;;9.25;3.45;;;;;;;15.44;67.33;100526.41;4900494;28;127701;-64
2021/08/03 02:06:30;;;;;;;6.72;3.70;;;;;;;15.40;67.81;100526.19;4898282;28;118103;-66
2021/08/03 02:08:57;;;;;;;4.97;3.00;;;;;;;15.40;67.49;100525.41;4901255;28;97861;-67
2021/08/03 02:11:24;;;;;;;4.47;3.05;;;;;;;15.37;67.83;100517.88;4883428;28;98995;-64
2021/08/03 02:13:51;;;;;;;3.72;3.30;;;;;;;15.36;68.02;100525.19;4901240;28;99172;-66
2021/08/03 02:16:17;;;;;;;4.40;3.40;;;;;;;15.33;68.00;100523.09;4882059;28;118691;-63
2021/08/03 02:18:47;;;;;;;4.35;3.40;;;;;;;15.27;67.88;100537.03;4900701;28;97922;-67
2021/08/03 02:21:21;;;;;;;5.72;2.97;;;;;;;15.17;68.03;100540.75;4900400;28;98130;-66
2021/08/03 02:23:48;;;;;;;4.28;3.40;;;;;;;15.16;68.07;100545.34;4883991;28;98430;-63
2021/08/03 02:26:14;;;;;;;3.10;2.75;;;;;;;15.18;68.39;100536.91;4900578;28;97899;-66
2021/08/03 02:28:41;;;;;;;4.68;3.85;;;;;;;15.21;68.22;100533.63;4883593;28;97740;-64
2021/08/03 02:31:31;;;;;;;3.33;2.97;;;;;;;15.20;68.02;100537.41;4866290;28;104909;-66
2021/08/03 02:34:06;;;;;;;3.92;2.90;;;;;;;15.22;68.33;100533.31;4903404;28;99982;-64
2021/08/03 02:36:32;;;;;;;4.82;2.70;;;;;;;15.22;67.89;100532.50;4882957;28;119851;-66
2021/08/03 02:39:04;;;;;;;3.65;3.08;;;;;;;15.15;68.03;100541.00;4897491;28;122781;-64
2021/08/03 02:41:31;;;;;;;3.38;2.95;;;;;;;15.15;68.41;100543.72;4899977;28;128319;-66
2021/08/03 02:43:57;;;;;;;5.45;3.05;;;;;;;15.14;68.45;100538.59;4863288;28;98478;-66
2021/08/03 02:46:24;;;;;;;3.65;2.80;;;;;;;15.14;68.34;100535.91;4879277;28;126641;-64
2021/08/03 02:49:08;;;;;;;5.47;3.28;;;;;;;15.13;68.38;100542.41;4899302;28;97918;-64
2021/08/03 02:51:36;;;;;;;3.00;2.70;;;;;;;15.11;68.48;100537.28;4880797;28;99400;-66
2021/08/03 02:54:30;;;;;;;5.30;3.40;;;;;;;15.05;68.08;100541.19;4896650;28;97895;-67
2021/08/03 02:56:57;;;;;;;4.72;2.90;;;;;;;15.07;68.66;100533.53;4883204;28;104546;-67
2021/08/03 02:59:23;;;;;;;7.78;3.17;;;;;;;15.08;68.56;100540.59;4900492;28;97800;-66
2021/08/03 03:01:49;;;;;;;5.57;3.53;;;;;;;15.06;68.63;100531.94;4896766;28;119692;-67
2021/08/03 03:04:24;;;;;;;4.47;3.20;;;;;;;15.04;68.50;100533.31;4898042;28;112346;-67
2021/08/03 03:06:56;;;;;;;5.25;3.58;;;;;;;15.09;68.24;100533.25;4881919;28;119050;-67
2021/08/03 03:09:24;;;;;;;5.75;3.10;;;;;;;15.12;68.81;100536.16;4898287;28;116578;-66
2021/08/03 03:11:54;;;;;;;3.67;3.00;;;;;;;15.14;68.12;100527.75;4897972;28;113706;-64
2021/08/03 03:14:22;;;;;;;4.28;2.83;;;;;;;15.19;68.74;100525.75;4882053;28;97957;-64
2021/08/03 03:16:49;;;;;;;2.88;2.60;;;;;;;15.21;68.78;100528.19;4867366;28;117237;-66
2021/08/03 03:19:16;;;;;;;4.57;3.10;;;;;;;15.22;68.36;100540.66;4876318;28;97745;-66
2021/08/03 03:21:43;;;;;;;4.10;3.20;;;;;;;15.19;68.69;100544.75;4881739;28;99041;-67
2021/08/03 03:24:09;;;;;;;3.70;2.88;;;;;;;15.21;68.47;100548.00;4900737;28;98248;-67
2021/08/03 03:26:36;;;;;;;3.92;2.90;;;;;;;15.20;68.37;100549.06;4896772;28;127651;-67
2021/08/03 03:29:02;;;;;;;3.60;3.03;;;;;;;15.21;68.24;100545.28;4882164;28;97987;-66
2021/08/03 03:31:30;;;;;;;4.32;3.10;;;;;;;15.23;68.67;100544.97;4896621;28;117107;-67
2021/08/03 03:33:56;;;;;;;6.05;3.38;;;;;;;15.26;68.12;100532.72;4899833;28;98199;-64
2021/08/03 03:36:27;;;;;;;4.45;3.00;;;;;;;15.26;68.57;100530.81;4867805;28;98577;-66
2021/08/03 03:38:53;;;;;;;3.90;2.95;;;;;;;15.28;68.62;100536.72;4898638;28;112353;-64
2021/08/03 03:41:25;;;;;;;5.95;2.90;;;;;;;15.25;68.17;100531.09;4881842;28;98574;-67
2021/08/03 03:43:51;;;;;;;;;;;;;;;15.19;67.41;100533.09;4900801;28;98500;-64
2021/08/03 03:46:19;;;;;;;3.85;2.92;;;;;;;15.20;68.35;100535.50;4880979;28;127758;-64
2021/08/03 03:48:52;;;;;;;4.68;2.83;;;;;;;15.19;68.03;100533.09;4897729;28;113707;-67
2021/08/03 03:51:21;;;;;;;4.20;3.28;;;;;;;15.19;68.41;100535.81;4867113;28;99206;-67
2021/08/03 03:53:51;;;;;;;3.42;3.13;;;;;;;15.17;68.14;100538.81;4897449;28;116571;-67
2021/08/03 03:56:18;;;;;;;4.10;2.63;;;;;;;15.20;68.88;100540.13;4897459;28;116117;-67
2021/08/03 03:58:49;;;;;;;3.55;2.70;;;;;;;15.23;68.79;100550.41;4897925;28;122614;-64
2021/08/03 04:01:21;;;;;;;3.10;2.53;;;;;;;15.29;68.44;100553.81;4881640;28;97975;-67
2021/08/03 04:03:47;;;;;;;4.17;2.73;;;;;;;15.32;68.49;100547.81;4881668;28;115862;-67
2021/08/03 04:06:13;;;;;;;5.93;2.90;;;;;;;15.33;68.69;100552.16;4895910;28;126237;-64
2021/08/03 04:08:39;;;;;;;4.50;2.97;;;;;;;15.31;68.17;100548.91;4898551;28;97775;-64
2021/08/03 04:11:05;;;;;;;3.33;2.63;;;;;;;15.28;68.49;100554.94;4898756;28;127735;-67
2021/08/03 04:13:31;;;;;;;3.38;2.70;;;;;;;15.27;68.60;100548.69;4896246;28;127179;-64
2021/08/03 04:15:57;;;;;;;3.83;3.03;;;;;;;15.29;68.54;100551.13;4896682;28;127449;-67
2021/08/03 04:18:24;;;;;;;4.30;2.40;;;;;;;15.31;68.48;100557.88;4899135;28;123830;-64
2021/08/03 04:20:50;;;;;;;3.00;2.50;;;;;;;15.36;68.79;100562.41;4914788;28;126726;-64
2021/08/03 04:23:16;;;;;;;6.63;2.80;;;;;;;15.42;68.74;100564.75;4899571;28;126245;-64
2021/08/03 04:25:42;;;;;;;3.83;2.55;;;;;;;15.48;68.24;100565.47;4899847;28;126737;-64
2021/08/03 04:28:08;;;;;;;4.20;2.20;;;;;;;15.51;68.45;100554.00;4902310;28;123065;-67
2021/08/03 04:30:35;;;;;;;2.97;2.20;;;;;;;15.54;68.17;100558.84;4900958;28;125976;-67
2021/08/03 04:33:01;;;;;;;3.70;2.30;;;;;;;15.61;68.26;100563.91;4904834;28;115048;-67
2021/08/03 04:35:27;;;;;;;3.30;2.40;;;;;;;15.67;68.02;100565.44;4894410;28;97992;-67
2021/08/03 04:37:53;;;;;;;2.75;2.15;;;;;;;15.68;68.11;100570.59;4902149;28;114160;-64
2021/08/03 04:40:23;;;;;;;2.67;2.30;;;;;;;15.74;68.17;100571.31;4901917;28;112550;-64
2021/08/03 04:42:49;;;;;;;5.53;2.60;;;;;;;15.77;67.85;100565.28;4901776;28;98890;-64
2021/08/03 04:45:15;;;;;;;3.90;2.90;;;;;;;15.80;68.22;100563.84;4902085;28;97752;-67
2021/08/03 04:47:51;;;;;;;6.60;2.80;;;;;;;15.83;68.09;100574.13;4902503;28;98025;-64
2021/08/03 04:50:24;;;;;;;3.00;2.45;;;;;;;15.83;68.03;100580.38;4902410;28;99290;-67
2021/08/03 04:52:51;;;;;;;2.88;2.30;;;;;;;15.88;68.22;100576.78;4902138;28;98477;-67
2021/08/03 04:55:17;;;;;;;2.70;2.38;;;;;;;15.92;68.08;100577.78;4902066;28;98277;-64
2021/08/03 04:57:43;;;;;;;4.40;2.78;;;;;;;15.95;67.63;100577.16;4902192;28;97921;-67
2021/08/03 05:00:11;;;;;;;2.60;2.40;;;;;;;16.01;67.64;100583.31;4902310;28;98375;-64
2021/08/03 05:02:37;;;;;;;4.18;2.90;;;;;;;16.07;67.68;100580.22;4901960;28;98479;-67
2021/08/03 05:05:05;;;;;;;3.85;2.65;;;;;;;16.09;67.36;100569.84;4900672;28;100330;-64
2021/08/03 05:07:31;;;;;;;3.08;2.60;;;;;;;16.16;67.57;100567.53;4902733;28;97940;-67
2021/08/03 05:10:15;;;;;;;3.85;2.90;;;;;;;16.22;67.34;100570.94;4883979;28;98599;-67
2021/08/03 05:12:41;;;;;;;4.07;2.83;;;;;;;16.32;67.25;100564.50;4901505;28;127982;-67
2021/08/03 05:15:08;;;;;;;4.38;3.05;;;;;;;16.41;66.90;100568.91;4902328;28;98084;-64
2021/08/03 05:17:34;;;;;;;4.75;3.47;;;;;;;16.48;66.99;100559.56;4901325;28;112530;-67
2021/08/03 05:20:00;;;;;;;4.05;2.92;;;;;;;16.54;66.61;100563.75;4901570;28;99043;-64
2021/08/03 05:22:27;;;;;;;5.30;3.10;;;;;;;16.65;66.28;100559.72;4900374;28;127959;-67
2021/08/03 05:24:53;;;;;;;3.78;3.10;;;;;;;16.77;65.63;100561.94;4883402;28;98031;-64
2021/08/03 05:27:19;;;;;;;5.07;3.50;;;;;;;16.94;65.84;100564.84;4902640;28;97896;-64
2021/08/03 05:29:45;;;;;;;4.40;3.45;;;;;;;17.07;65.04;100558.53;4900729;28;110715;-65
2021/08/03 05:32:11;;;;;;;4.22;3.22;;;;;;;17.31;64.48;100558.22;4901256;28;110178;-65
2021/08/03 05:34:38;;;;;;;5.10;3.28;;;;;;;17.51;63.98;100559.63;4900983;28;126905;-65
2021/08/03 05:37:06;;;;;;;4.32;3.22;;;;;;;17.71;63.39;100552.03;4902036;28;98039;-67
2021/08/03 05:39:32;;;;;;;3.88;3.00;;;;;;;17.86;63.09;100557.13;4883247;28;128511;-64
2021/08/03 05:42:02;;;;;;;3.90;2.97;;;;;;;17.83;62.98;100558.53;4900819;28;126435;-67
2021/08/03 05:44:28;;;;;;;5.15;2.63;;;;;;;17.86;63.05;100560.66;4900734;28;113522;-67
2021/08/03 05:46:54;;;;;;;4.50;3.30;;;;;;;17.99;62.82;100558.94;4883518;28;98610;-67
2021/08/03 05:49:20;;;;;;;3.20;2.90;;;;;;;18.23;62.36;100561.25;4898961;28;117693;-67
2021/08/03 05:51:46;;;;;;;4.35;2.97;;;;;;;18.33;62.10;100560.97;4881512;28;98949;-67
2021/08/03 05:54:13;;;;;;;4.78;3.00;;;;;;;18.62;61.41;100563.13;4881205;28;126426;-67
2021/08/03 05:56:39;;;;;;;3.45;2.70;;;;;;;18.93;60.87;100564.97;4882012;28;111065;-68
2021/08/03 05:59:05;;;;;;;3.22;2.63;;;;;;;19.15;60.16;100572.19;4891353;28;98146;-68
2021/08/03 06:01:32;;;;;;;3.17;2.10;;;;;;;19.39;59.74;100566.22;4901590;28;98218;-65
2021/08/03 06:03:58;;;;;;;2.80;2.58;;;;;;;19.43;59.22;100569.13;4900683;28;100295;-65
2021/08/03 06:06:24;;;;;;;5.35;2.45;;;;;;;19.50;59.04;100566.69;4898717;28;122890;-65
2021/08/03 06:08:50;;;;;;;4.15;2.58;;;;;;;19.64;58.74;100567.31;4899027;28;105439;-68
2021/08/03 06:11:17;;;;;;;3.70;2.67;;;;;;;19.89;58.10;100562.13;4882208;28;127863;-65
2021/08/03 06:13:49;;;;;;;3.83;2.50;;;;;;;20.22;57.61;100562.28;4867128;28;98216;-68
2021/08/03 06:16:17;;;;;;;3.40;2.60;;;;;;;20.83;56.25;100563.56;4901598;28;97829;-68
2021/08/03 06:18:45;;;;;;;3.47;2.15;;;;;;;20.93;56.27;100564.28;4867738;28;98366;-65
2021/08/03 06:21:15;;;;;;;3.95;2.60;;;;;;;21.07;55.58;100562.06;4901185;28;98919;-67
2021/08/03 06:23:45;;;;;;;4.25;2.40;;;;;;;20.92;56.04;100571.69;4899044;28;97823;-65
2021/08/03 06:26:12;;;;;;;5.72;2.72;;;;;;;20.92;55.71;100566.22;4901230;28;98296;-65
2021/08/03 06:28:38;;;;;;;3.85;2.70;;;;;;;20.99;55.06;100573.91;4901004;28;111787;-68
2021/08/03 06:31:04;;;;;;;4.40;2.50;;;;;;;21.07;55.10;100564.81;4882316;28;110706;-65
2021/08/03 06:33:30;;;;;;;3.30;2.55;;;;;;;21.00;55.07;100564.53;4894553;28;97946;-65
2021/08/03 06:35:56;;;;;;;2.90;2.53;;;;;;;21.37;54.17;100564.72;4900809;28;97806;-65
2021/08/03 06:38:23;;;;;;;4.22;2.00;;;;;;;21.96;53.04;100561.66;4865904;28;101561;-65
2021/08/03 06:41:03;;;;;;;5.15;2.40;;;;;;;21.94;53.24;100567.50;4882268;28;118030;-68
2021/08/03 06:43:30;;;;;;;3.08;2.33;;;;;;;22.64;51.08;100561.91;4882954;28;117011;-68
2021/08/03 06:46:23;;;;;;;4.38;2.17;;;;;;;23.05;51.36;100565.47;4900102;28;97918;-66
2021/08/03 06:49:02;;;;;;;2.88;2.05;;;;;;;22.66;51.16;100569.78;4898012;28;116903;-69
2021/08/03 06:51:38;;;;;;;3.17;2.38;;;;;;;22.25;51.85;100564.22;4900530;28;99053;-65
2021/08/03 06:54:06;;;;;;;4.10;2.67;;;;;;;22.43;50.78;100562.03;4900871;28;98305;-67
2021/08/03 06:57:18;;;;;;;3.08;2.45;;;;;;;24.14;48.33;100563.25;4899823;28;111498;-68
2021/08/03 06:59:48;;;;;;;;;;;;;;;25.58;46.88;100567.13;4899130;28;128116;-68
2021/08/03 07:02:22;;;;;;;6.00;2.42;;;;;;;26.41;43.60;100565.41;4899132;28;121838;-65
2021/08/03 07:05:01;;;;;;;3.28;1.90;;;;;;;25.90;45.77;100565.78;4883163;28;99454;-69
2021/08/03 07:07:27;;;;;;;3.55;1.85;;;;;;;25.48;45.98;100562.22;4900399;28;111639;-66
2021/08/03 07:09:57;;;;;;;4.18;1.90;;;;;;;25.82;44.33;100563.25;4900164;28;98698;-65
2021/08/03 07:12:23;;;;;;;3.38;1.70;;;;;;;26.26;43.42;100562.78;4898770;28;98445;-68
2021/08/03 07:14:50;;;;;;;3.28;1.80;;;;;;;26.58;42.67;100564.09;4900690;28;98143;-68
2021/08/03 07:17:16;;;;;;;3.50;1.52;;;;;;;27.02;42.29;100570.97;4901221;28;97828;-68
2021/08/03 07:19:43;;;;;;;2.25;1.65;;;;;;;27.23;40.99;100562.94;4900717;28;98615;-68
2021/08/03 07:22:10;;;;;;;3.00;1.60;;;;;;;27.79;40.39;100558.41;4898730;28;106980;-68
2021/08/03 07:24:40;;;;;;;2.60;1.40;;;;;;;28.19;40.36;100568.63;4899715;28;98808;-65
2021/08/03 07:27:07;;;;;;;1.77;1.13;;;;;;;28.30;39.96;100563.97;4900074;28;114135;-65
2021/08/03 07:29:33;;;;;;;3.30;1.60;;;;;;;28.74;38.43;100571.38;4896752;28;128861;-68
2021/08/03 07:31:59;;;;;;;2.13;1.40;;;;;;;29.00;38.24;100563.97;4900119;28;98632;-68
2021/08/03 07:34:25;;;;;;;3.47;1.45;;;;;;;28.77;38.30;100556.72;4880852;28;127684;-67
2021/08/03 07:36:51;;;;;;;2.78;1.30;;;;;;;28.74;38.63;100548.41;4897339;28;120914;-68
2021/08/03 07:39:17;;;;;;;3.85;1.63;;;;;;;29.08;37.61;100549.75;4882044;28;98527;-66
2021/08/03 07:41:43;;;;;;;2.15;1.30;;;;;;;29.40;37.47;100559.34;4865063;28;122891;-68
2021/08/03 07:44:09;;;;;;;4.30;2.03;;;;;;;29.19;37.10;100557.31;4899274;28;127586;-68
2021/08/03 07:46:35;;;;;;;2.75;1.75;;;;;;;28.71;37.97;100555.50;4897290;28;122881;-66
2021/08/03 07:49:03;;;;;;;3.28;1.90;;;;;;;29.22;36.96;100551.78;4899363;28;105365;-65
2021/08/03 07:51:29;;;;;;;3.38;1.45;;;;;;;29.91;36.09;100550.72;4899672;28;97994;-68
2021/08/03 07:53:55;;;;;;;2.13;1.90;;;;;;;30.56;35.03;100549.44;4898670;28;128066;-66
2021/08/03 07:56:21;;;;;;;2.30;1.55;;;;;;;31.01;34.75;100549.72;4902876;28;107499;-66
2021/08/03 07:58:47;;;;;;;4.57;1.70;;;;;;;31.21;34.25;100552.78;4902601;28;128027;-66
2021/08/03 08:01:14;;;;;;;3.38;1.40;;;;;;;30.56;35.61;100543.88;4902442;28;98174;-66
2021/08/03 08:03:40;;;;;;;3.25;1.92;;;;;;;30.05;35.60;100549.91;4884954;28;98351;-66
2021/08/03 08:06:06;;;;;;;3.90;1.60;;;;;;;29.74;36.14;100546.72;4902295;28;122915;-66
2021/08/03 08:08:33;;;;;;;4.00;1.67;;;;;;;29.27;36.55;100543.06;4902089;28;128147;-69
2021/08/03 08:10:59;;;;;;;3.05;1.60;;;;;;;29.06;36.76;100526.38;4900897;28;108662;-66
2021/08/03 08:13:25;;;;;;;2.15;1.77;;;;;;;28.82;37.74;100527.84;4900959;28;98434;-68
2021/08/03 08:15:51;;;;;;;4.15;1.80;;;;;;;27.97;38.47;100537.19;4902857;28;103340;-69
2021/08/03 08:18:17;;;;;;;3.05;2.75;;;;;;;27.26;38.97;100531.75;4902492;28;127278;-69
2021/08/03 08:20:44;;;;;;;3.33;2.80;;;;;;;26.61;39.90;100526.63;4901538;28;128580;-69
2021/08/03 08:23:11;;;;;;;4.38;2.78;;;;;;;27.62;38.23;100527.38;4903240;28;98770;-69
2021/08/03 08:25:37;;;;;;;3.45;2.60;;;;;;;29.26;36.15;100524.81;4902198;28;114369;-69
2021/08/03 08:28:04;;;;;;;2.95;2.38;;;;;;;28.31;37.22;100526.75;4901687;28;129103;-66
2021/08/03 08:30:30;;;;;;;3.90;2.40;;;;;;;27.53;39.15;100528.88;4902049;28;119145;-66
2021/08/03 08:32:56;;;;;;;2.88;2.47;;;;;;;27.12;39.96;100526.88;4901563;28;128267;-66
2021/08/03 08:35:22;;;;;;;2.78;2.25;;;;;;;26.49;40.46;100515.78;4901143;28;122784;-69
2021/08/03 08:37:48;;;;;;;3.78;2.45;;;;;;;25.88;41.74;100512.09;4901619;28;128485;-69
2021/08/03 08:40:18;;;;;;;3.72;2.40;;;;;;;25.54;42.58;100511.88;4882981;28;127926;-66
2021/08/03 08:42:45;;;;;;;3.88;2.30;;;;;;;27.90;38.35;100501.13;4901616;28;98175;-66
2021/08/03 08:45:11;;;;;;;3.03;2.22;;;;;;;27.51;39.01;100509.06;4902518;28;97930;-66
2021/08/03 08:47:37;;;;;;;2.58;1.73;;;;;;;28.86;37.08;100509.22;4901553;28;99893;-69
2021/08/03 08:50:07;;;;;;;2.33;1.92;;;;;;;29.20;37.25;100507.00;4899702;28;128643;-66
2021/08/03 08:52:37;;;;;;;2.15;1.90;;;;;;;29.41;37.12;100519.31;4884689;28;98225;-69
2021/08/03 08:55:04;;;;;;;2.33;1.88;;;;;;;28.68;37.87;100509.16;4901281;28;115346;-69
2021/08/03 08:57:30;;;;;;;3.88;2.08;;;;;;;29.67;37.19;100507.88;4884936;28;99282;-66
2021/08/03 08:59:56;;;;;;;3.28;2.50;;;;;;;28.95;37.38;100511.63;4902086;28;112207;-66
2021/08/03 09:02:41;;;;;;;3.10;2.80;;;;;;;29.89;36.19;100507.84;4900884;28;128316;-67
2021/08/03 09:05:12;;;;;;;3.63;2.90;;;;;;;30.68;34.79;100503.72;4899515;28;98290;-69
2021/08/03 09:07:52;;;;;;;6.18;3.50;;;;;;;30.36;34.99;100494.69;4902176;28;116886;-66
2021/08/03 09:10:49;;;;;;;4.32;3.55;;;;;;;30.55;34.79;100510.94;4901820;28;98250;-69
2021/08/03 09:13:22;;;;;;;4.40;3.78;;;;;;;29.60;36.20;100502.31;4902083;28;97776;-69
2021/08/03 09:16:01;;;;;;;3.67;3.47;;;;;;;29.59;36.18;100512.63;4900222;28;98197;-69
2021/08/03 09:18:36;;;;;;;5.07;4.57;;;;;;;31.98;32.45;100508.09;4902160;28;98715;-68
2021/08/03 09:21:02;;;;;;;3.83;3.40;;;;;;;34.13;28.67;100519.19;4883757;28;109968;-66
2021/08/03 09:23:46;;;;;;;3.60;3.05;;;;;;;33.50;30.21;100521.84;4900653;28;127032;-69
2021/08/03 09:26:13;;;;;;;3.28;2.95;;;;;;;33.79;29.74;100516.56;4900176;28;97973;-66
2021/08/03 09:29:03;;;;;;;5.10;2.95;;;;;;;35.06;29.07;100514.56;4900286;28;98567;-70
2021/08/03 09:31:31;;;;;;;3.75;2.70;;;;;;;35.38;27.82;100517.41;4901652;28;99041;-70
2021/08/03 09:33:57;;;;;;;3.80;2.90;;;;;;;35.73;27.28;100511.41;4901503;28;98026;-67
2021/08/03 09:37:02;;;;;;;3.88;2.58;;;;;;;35.78;27.83;100508.84;4901454;28;97756;-67
2021/08/03 09:39:44;;;;;;;4.38;2.80;;;;;;;35.81;27.61;100501.59;4900743;28;110830;-64
2021/08/03 09:42:15;;;;;;;3.10;2.80;;;;;;;36.34;26.50;100494.53;4901563;28;98578;-65
2021/08/03 09:44:45;;;;;;;3.80;3.03;;;;;;;36.99;25.79;100489.91;4900521;28;98214;-64
2021/08/03 09:47:11;;;;;;;3.35;2.80;;;;;;;34.78;27.60;100483.16;4901954;28;98088;-67
2021/08/03 09:49:42;;;;;;;3.22;2.25;;;;;;;37.08;24.67;100492.81;4900283;28;121892;-64
2021/08/03 09:52:12;;;;;;;3.00;2.10;;;;;;;36.82;24.69;100487.16;4899449;28;98102;-67
2021/08/03 09:54:39;;;;;;;2.58;1.92;;;;;;;34.61;26.82;100487.09;4900526;28;97759;-65
2021/08/03 09:57:18;;;;;;;2.28;2.08;;;;;;;33.19;28.49;100477.19;4901739;28;97913;-68
2021/08/03 09:59:44;;;;;;;2.05;1.80;;;;;;;31.81;30.00;100474.81;4899186;28;116804;-68
2021/08/03 10:02:16;;;;;;;2.47;1.83;;;;;;;30.73;31.29;100475.53;4900253;28;128494;-68
2021/08/03 10:04:46;;;;;;;3.47;2.08;;;;;;;29.76;33.08;100472.16;4884025;28;98320;-65
2021/08/03 10:07:15;;;;;;;2.50;2.30;;;;;;;28.95;33.86;100470.81;4899558;28;97927;-65
2021/08/03 10:09:42;;;;;;;3.60;2.60;;;;;;;28.28;35.77;100477.63;4901114;28;98440;-65
2021/08/03 10:12:08;;;;;;;2.85;2.42;;;;;;;27.65;37.66;100476.78;4900523;28;114940;-67
2021/08/03 10:14:35;;;;;;;3.33;2.80;;;;;;;27.14;37.72;100477.50;4899148;28;113209;-70
2021/08/03 10:17:01;;;;;;;5.45;2.83;;;;;;;26.62;38.99;100481.22;4900546;28;98167;-67
2021/08/03 10:19:36;;;;;;;5.43;3.78;;;;;;;26.17;41.15;100496.75;4901548;28;98473;-68
2021/08/03 10:22:26;;;;;;;11.00;5.80;;;;;;;25.69;43.33;100485.31;4900607;28;98451;-72
2021/08/03 10:25:01;;;;;;;6.10;4.22;;;;;;;25.20;44.14;100491.56;4882344;28;108531;-68
2021/08/03 10:27:48;;;;;;;6.32;4.60;;;;;;;24.85;45.42;100486.94;4901218;28;97983;-71
2021/08/03 10:30:34;;;;;;;6.40;4.60;;;;;;;24.84;46.82;100484.56;4900788;28;98621;-71
2021/08/03 10:33:12;;;;;;;6.65;5.30;;;;;;;25.33;46.42;100486.69;4901103;28;99073;-67
2021/08/03 10:35:49;;;;;;;4.45;4.03;;;;;;;26.26;45.04;100477.97;4883976;28;98414;-71
2021/08/03 10:38:19;;;;;;;4.93;3.72;;;;;;;27.27;42.07;100475.25;4901380;28;97777;-70
2021/08/03 10:40:48;;;;;;;4.60;4.20;;;;;;;28.40;41.56;100482.09;4900044;28;99415;-70
2021/08/03 10:43:33;;;;;;;5.35;3.70;;;;;;;29.58;40.30;100486.03;4900540;28;98645;-67
2021/08/03 10:46:08;;;;;;;5.80;4.00;;;;;;;31.40;36.81;100478.31;4899819;28;98452;-70
2021/08/03 10:48:41;;;;;;;4.13;3.25;;;;;;;33.22;34.30;100481.94;4900976;28;97833;-70
2021/08/03 10:51:16;;;;;;;4.72;3.10;;;;;;;34.52;32.49;100482.09;4900323;28;98632;-70
2021/08/03 10:54:08;;;;;;;3.42;2.95;;;;;;;35.30;30.92;100487.22;4900578;28;98366;-70
2021/08/03 10:56:54;;;;;;;6.30;2.90;;;;;;;36.54;29.46;100476.78;4900937;28;98664;-67
2021/08/03 10:59:32;;;;;;;2.92;2.70;;;;;;;34.91;30.61;100463.69;4901017;28;97771;-70
2021/08/03 11:01:59;;;;;;;2.58;2.25;;;;;;;35.98;29.35;100454.69;4899648;28;99870;-70
2021/08/03 11:04:57;;;;;;;3.13;2.42;;;;;;;35.60;30.52;100447.63;4900062;28;121302;-70
2021/08/03 11:07:34;;;;;;;2.92;2.30;;;;;;;34.08;31.91;100452.59;4897810;28;98119;-67
2021/08/03 11:10:09;;;;;;;4.03;2.30;;;;;;;32.93;31.99;100443.28;4900320;28;98053;-67
2021/08/03 11:12:40;;;;;;;2.42;2.10;;;;;;;31.71;33.48;100429.13;4900738;28;98143;-70
2021/08/03 11:15:33;;;;;;;3.42;2.50;;;;;;;30.44;34.86;100433.13;4881216;28;98308;-69
2021/08/03 11:18:07;;;;;;;3.00;2.70;;;;;;;29.54;36.78;100431.66;4892448;28;99936;-67
2021/08/03 11:20:36;;;;;;;4.03;2.97;;;;;;;28.74;37.08;100435.50;4900200;28;98010;-70
2021/08/03 11:23:15;;;;;;;3.55;2.70;;;;;;;28.18;37.82;100430.47;4899810;28;98587;-70
2021/08/03 11:25:43;;;;;;;3.63;3.00;;;;;;;30.09;34.53;100434.78;4899824;28;98741;-70
2021/08/03 11:28:17;;;;;;;4.82;2.75;;;;;;;29.93;35.08;100425.31;4901257;28;98102;-70
2021/08/03 11:30:44;;;;;;;3.15;2.70;;;;;;;29.29;35.89;100437.22;4903561;28;98046;-67
2021/08/03 11:33:11;;;;;;;4.38;2.80;;;;;;;28.69;37.03;100424.81;4903691;28;100076;-67
2021/08/03 11:35:38;;;;;;;4.05;2.90;;;;;;;28.15;37.29;100432.06;4916724;28;112209;-70